Alexandria International Airport
KAEX : now visible

Airfield :











YOU CAN JOIN US ON...

 
LOGIN :

Register | Disclaimer

   EN    FR    IT 

 









Legend :    VFR   Marginal VFR   IFR   Intensive IFR   Very Intensive IFR
Visi :
Ceiling :
>= 8 km
>= 3000ft
5 to 8 km
1000 to 3000 ft
1500m to 5 km
500 to 1000 ft
800 to 1500m
200 to 500 ft
< 800m
< 200 ft
Symbols :   Thunderstorms  Fog  Heavy snow  Heavy precipitations  Wind > 20 kt






- Airport Elevation : 89 ft
- IATA code : AEX


KAEX - Alexandria International

CURRENT METAR :
  • 191653Z 25004KT 10SM SCT020 OVC100 30/22 A2996 RMK AO2 SLP148 T03000222

EXPIRED METARs :
  • 191553Z 00000KT 10SM BKN090 OVC110 28/22 A2996 RMK AO2 SLP149 T02830222
  • 191453Z 00000KT 10SM FEW075 BKN090 BKN120 28/22 A2996 RMK AO2 SLP148 T02780222 51013

TAF KAEX
Valid from the 19 at 12:00 until the 20 at 12:00 UTC


191140Z 1912/2012 VRB03KT P6SM VCSH SCT060 BKN200
FM191600 20007KT P6SM VCTS SCT040CB BKN110
TEMPO 1918/1922 VRB16G22KT 3SM TSRA SCT022 BKN030CB
FM200100 VRB04KT P6SM BKN200
KZHU FIR / North America



MET'MAP, your aeronautical weather chart ! - Copyright ORBIFLY December 2007 - Disclaimer

ORBIFLY MET'MAP TEAM :

Programming & Development : Alexandra Zaïnal
Original concept : Baudouin d'Aumeries
Technical & hardware support : Manuel Goepfert
Assistance : Marc-Olivier Méhu




SOURCES & CREDITS :

   NOAA       Earth
Advisory